sensor_id;sensor_type;location;lat;lon;timestamp;P1;durP1;ratioP1;P2;durP2;ratioP2
77775;SDS011;66965;43.328;6.668;2023-05-16T00:00:17;3.27;;;1.30;;
77775;SDS011;66965;43.328;6.668;2023-05-16T00:02:42;4.15;;;1.60;;
77775;SDS011;66965;43.328;6.668;2023-05-16T00:05:07;3.50;;;1.42;;
77775;SDS011;66965;43.328;6.668;2023-05-16T00:07:34;4.20;;;1.70;;
77775;SDS011;66965;43.328;6.668;2023-05-16T00:10:00;3.45;;;1.38;;
77775;SDS011;66965;43.328;6.668;2023-05-16T00:12:25;2.95;;;1.15;;
77775;SDS011;66965;43.328;6.668;2023-05-16T00:14:52;3.65;;;1.50;;
77775;SDS011;66965;43.328;6.668;2023-05-16T00:17:18;4.63;;;1.58;;
77775;SDS011;66965;43.328;6.668;2023-05-16T00:19:44;3.10;;;1.50;;
77775;SDS011;66965;43.328;6.668;2023-05-16T00:22:13;3.40;;;1.48;;
77775;SDS011;66965;43.328;6.668;2023-05-16T00:24:38;3.95;;;1.50;;
77775;SDS011;66965;43.328;6.668;2023-05-16T00:27:03;3.33;;;1.47;;
77775;SDS011;66965;43.328;6.668;2023-05-16T00:29:29;4.18;;;1.48;;
77775;SDS011;66965;43.328;6.668;2023-05-16T00:34:20;3.03;;;1.30;;
77775;SDS011;66965;43.328;6.668;2023-05-16T00:36:46;3.20;;;1.40;;
77775;SDS011;66965;43.328;6.668;2023-05-16T00:39:12;3.55;;;1.40;;
77775;SDS011;66965;43.328;6.668;2023-05-16T00:41:37;3.37;;;1.20;;
77775;SDS011;66965;43.328;6.668;2023-05-16T00:44:03;3.10;;;1.48;;
77775;SDS011;66965;43.328;6.668;2023-05-16T00:46:28;4.97;;;1.73;;
77775;SDS011;66965;43.328;6.668;2023-05-16T00:48:53;2.70;;;1.23;;
77775;SDS011;66965;43.328;6.668;2023-05-16T00:51:19;3.10;;;1.30;;
77775;SDS011;66965;43.328;6.668;2023-05-16T00:53:44;3.45;;;1.33;;
77775;SDS011;66965;43.328;6.668;2023-05-16T00:56:10;3.38;;;1.33;;
77775;SDS011;66965;43.328;6.668;2023-05-16T00:58:35;3.77;;;1.60;;
77775;SDS011;66965;43.328;6.668;2023-05-16T01:01:01;2.58;;;1.23;;
77775;SDS011;66965;43.328;6.668;2023-05-16T01:03:28;3.88;;;1.33;;
77775;SDS011;66965;43.328;6.668;2023-05-16T01:05:53;2.85;;;1.25;;
77775;SDS011;66965;43.328;6.668;2023-05-16T01:08:18;2.97;;;1.00;;
77775;SDS011;66965;43.328;6.668;2023-05-16T01:10:55;3.42;;;1.02;;
77775;SDS011;66965;43.328;6.668;2023-05-16T01:13:24;3.92;;;1.40;;
77775;SDS011;66965;43.328;6.668;2023-05-16T01:16:04;2.90;;;1.17;;
77775;SDS011;66965;43.328;6.668;2023-05-16T01:18:50;2.53;;;1.10;;
77775;SDS011;66965;43.328;6.668;2023-05-16T01:21:18;3.25;;;1.42;;
77775;SDS011;66965;43.328;6.668;2023-05-16T01:26:30;3.45;;;1.50;;
77775;SDS011;66965;43.328;6.668;2023-05-16T01:28:56;5.20;;;1.65;;
77775;SDS011;66965;43.328;6.668;2023-05-16T01:31:22;3.47;;;1.23;;
77775;SDS011;66965;43.328;6.668;2023-05-16T01:33:47;5.45;;;1.60;;
77775;SDS011;66965;43.328;6.668;2023-05-16T01:36:18;3.63;;;1.50;;
77775;SDS011;66965;43.328;6.668;2023-05-16T01:41:20;4.40;;;1.77;;
77775;SDS011;66965;43.328;6.668;2023-05-16T01:43:50;4.20;;;1.70;;
77775;SDS011;66965;43.328;6.668;2023-05-16T01:46:36;3.65;;;1.70;;
77775;SDS011;66965;43.328;6.668;2023-05-16T01:49:04;3.97;;;1.73;;
77775;SDS011;66965;43.328;6.668;2023-05-16T01:51:36;3.70;;;1.70;;
77775;SDS011;66965;43.328;6.668;2023-05-16T01:54:04;3.90;;;1.80;;
77775;SDS011;66965;43.328;6.668;2023-05-16T01:56:31;4.13;;;1.80;;
77775;SDS011;66965;43.328;6.668;2023-05-16T01:58:57;4.63;;;1.97;;
77775;SDS011;66965;43.328;6.668;2023-05-16T02:01:23;4.40;;;1.92;;
77775;SDS011;66965;43.328;6.668;2023-05-16T02:03:48;3.60;;;2.00;;
77775;SDS011;66965;43.328;6.668;2023-05-16T02:06:14;4.13;;;1.97;;
77775;SDS011;66965;43.328;6.668;2023-05-16T02:08:39;4.03;;;1.88;;
77775;SDS011;66965;43.328;6.668;2023-05-16T02:11:04;5.80;;;2.00;;
77775;SDS011;66965;43.328;6.668;2023-05-16T02:13:30;3.90;;;1.80;;
77775;SDS011;66965;43.328;6.668;2023-05-16T02:15:55;3.95;;;1.98;;
77775;SDS011;66965;43.328;6.668;2023-05-16T02:18:21;5.57;;;2.07;;
77775;SDS011;66965;43.328;6.668;2023-05-16T02:23:12;4.45;;;2.10;;
77775;SDS011;66965;43.328;6.668;2023-05-16T02:25:37;4.00;;;2.10;;
77775;SDS011;66965;43.328;6.668;2023-05-16T02:28:03;4.73;;;2.17;;
77775;SDS011;66965;43.328;6.668;2023-05-16T02:30:28;4.13;;;1.80;;
77775;SDS011;66965;43.328;6.668;2023-05-16T02:32:54;4.10;;;2.27;;
77775;SDS011;66965;43.328;6.668;2023-05-16T02:35:19;4.07;;;2.07;;
77775;SDS011;66965;43.328;6.668;2023-05-16T02:37:44;3.87;;;1.87;;
77775;SDS011;66965;43.328;6.668;2023-05-16T02:40:10;4.00;;;2.17;;
77775;SDS011;66965;43.328;6.668;2023-05-16T02:42:35;5.88;;;2.20;;
77775;SDS011;66965;43.328;6.668;2023-05-16T02:45:00;5.07;;;2.10;;
77775;SDS011;66965;43.328;6.668;2023-05-16T02:47:26;4.03;;;1.90;;
77775;SDS011;66965;43.328;6.668;2023-05-16T02:49:51;4.20;;;2.20;;
77775;SDS011;66965;43.328;6.668;2023-05-16T02:52:19;3.73;;;1.77;;
77775;SDS011;66965;43.328;6.668;2023-05-16T02:54:45;4.05;;;2.10;;
77775;SDS011;66965;43.328;6.668;2023-05-16T02:57:10;3.80;;;2.07;;
77775;SDS011;66965;43.328;6.668;2023-05-16T02:59:36;3.80;;;2.00;;
77775;SDS011;66965;43.328;6.668;2023-05-16T03:02:01;4.30;;;1.97;;
77775;SDS011;66965;43.328;6.668;2023-05-16T03:04:27;4.15;;;2.08;;
77775;SDS011;66965;43.328;6.668;2023-05-16T03:06:52;4.77;;;2.40;;
77775;SDS011;66965;43.328;6.668;2023-05-16T03:09:18;4.40;;;2.42;;
77775;SDS011;66965;43.328;6.668;2023-05-16T03:11:44;3.70;;;1.90;;
77775;SDS011;66965;43.328;6.668;2023-05-16T03:14:09;4.63;;;1.98;;
77775;SDS011;66965;43.328;6.668;2023-05-16T03:16:34;4.73;;;2.10;;
77775;SDS011;66965;43.328;6.668;2023-05-16T03:19:02;4.22;;;2.25;;
77775;SDS011;66965;43.328;6.668;2023-05-16T03:21:27;4.23;;;2.37;;
77775;SDS011;66965;43.328;6.668;2023-05-16T03:23:53;3.90;;;2.00;;
77775;SDS011;66965;43.328;6.668;2023-05-16T03:26:19;4.70;;;2.17;;
77775;SDS011;66965;43.328;6.668;2023-05-16T03:28:45;4.18;;;2.25;;
77775;SDS011;66965;43.328;6.668;2023-05-16T03:31:10;4.47;;;2.20;;
77775;SDS011;66965;43.328;6.668;2023-05-16T03:33:35;5.00;;;2.33;;
77775;SDS011;66965;43.328;6.668;2023-05-16T03:36:01;5.20;;;2.23;;
77775;SDS011;66965;43.328;6.668;2023-05-16T03:38:26;4.60;;;2.40;;
77775;SDS011;66965;43.328;6.668;2023-05-16T03:40:51;5.13;;;2.40;;
77775;SDS011;66965;43.328;6.668;2023-05-16T03:43:17;4.80;;;2.40;;
77775;SDS011;66965;43.328;6.668;2023-05-16T03:45:42;4.97;;;2.00;;
77775;SDS011;66965;43.328;6.668;2023-05-16T03:48:08;3.70;;;2.00;;
77775;SDS011;66965;43.328;6.668;2023-05-16T03:50:34;5.00;;;2.10;;
77775;SDS011;66965;43.328;6.668;2023-05-16T03:53:01;4.22;;;2.20;;
77775;SDS011;66965;43.328;6.668;2023-05-16T03:55:26;4.47;;;2.40;;
77775;SDS011;66965;43.328;6.668;2023-05-16T03:57:51;5.43;;;2.45;;
77775;SDS011;66965;43.328;6.668;2023-05-16T04:00:17;4.00;;;2.33;;
77775;SDS011;66965;43.328;6.668;2023-05-16T04:02:42;4.17;;;2.13;;
77775;SDS011;66965;43.328;6.668;2023-05-16T04:05:08;4.60;;;2.40;;
77775;SDS011;66965;43.328;6.668;2023-05-16T04:07:34;5.00;;;2.33;;
77775;SDS011;66965;43.328;6.668;2023-05-16T04:09:59;4.00;;;2.07;;
77775;SDS011;66965;43.328;6.668;2023-05-16T04:12:24;4.00;;;2.10;;
77775;SDS011;66965;43.328;6.668;2023-05-16T04:14:50;3.92;;;2.00;;
77775;SDS011;66965;43.328;6.668;2023-05-16T04:17:15;3.78;;;2.00;;
77775;SDS011;66965;43.328;6.668;2023-05-16T04:19:40;4.73;;;2.00;;
77775;SDS011;66965;43.328;6.668;2023-05-16T04:22:06;3.72;;;2.00;;
77775;SDS011;66965;43.328;6.668;2023-05-16T04:24:31;5.15;;;2.08;;
77775;SDS011;66965;43.328;6.668;2023-05-16T04:26:57;4.03;;;1.95;;
77775;SDS011;66965;43.328;6.668;2023-05-16T04:29:22;5.27;;;2.07;;
77775;SDS011;66965;43.328;6.668;2023-05-16T04:31:47;3.93;;;2.17;;
77775;SDS011;66965;43.328;6.668;2023-05-16T04:34:13;4.57;;;1.90;;
77775;SDS011;66965;43.328;6.668;2023-05-16T04:36:39;4.43;;;1.67;;
77775;SDS011;66965;43.328;6.668;2023-05-16T04:39:05;3.95;;;2.08;;
77775;SDS011;66965;43.328;6.668;2023-05-16T04:41:31;3.75;;;2.08;;
77775;SDS011;66965;43.328;6.668;2023-05-16T04:43:59;3.92;;;1.70;;
77775;SDS011;66965;43.328;6.668;2023-05-16T04:46:25;5.43;;;2.10;;
77775;SDS011;66965;43.328;6.668;2023-05-16T04:48:50;4.17;;;2.13;;
77775;SDS011;66965;43.328;6.668;2023-05-16T04:51:16;4.53;;;2.33;;
77775;SDS011;66965;43.328;6.668;2023-05-16T04:53:41;4.57;;;2.10;;
77775;SDS011;66965;43.328;6.668;2023-05-16T04:56:07;3.93;;;1.90;;
77775;SDS011;66965;43.328;6.668;2023-05-16T04:58:32;4.27;;;1.90;;
77775;SDS011;66965;43.328;6.668;2023-05-16T05:00:57;3.90;;;2.10;;
77775;SDS011;66965;43.328;6.668;2023-05-16T05:03:23;5.40;;;2.30;;
77775;SDS011;66965;43.328;6.668;2023-05-16T05:05:48;4.70;;;2.53;;
77775;SDS011;66965;43.328;6.668;2023-05-16T05:08:14;4.03;;;2.22;;
77775;SDS011;66965;43.328;6.668;2023-05-16T05:10:40;4.57;;;2.15;;
77775;SDS011;66965;43.328;6.668;2023-05-16T05:13:06;5.03;;;2.58;;
77775;SDS011;66965;43.328;6.668;2023-05-16T05:15:31;4.82;;;2.30;;
77775;SDS011;66965;43.328;6.668;2023-05-16T05:17:56;4.57;;;2.90;;
77775;SDS011;66965;43.328;6.668;2023-05-16T05:20:21;4.53;;;2.40;;
77775;SDS011;66965;43.328;6.668;2023-05-16T05:22:47;9.85;;;2.80;;
77775;SDS011;66965;43.328;6.668;2023-05-16T05:25:12;4.23;;;2.30;;
77775;SDS011;66965;43.328;6.668;2023-05-16T05:27:38;4.73;;;2.70;;
77775;SDS011;66965;43.328;6.668;2023-05-16T05:30:03;4.73;;;2.70;;
77775;SDS011;66965;43.328;6.668;2023-05-16T05:32:28;6.20;;;2.40;;
77775;SDS011;66965;43.328;6.668;2023-05-16T05:34:54;4.50;;;2.37;;
77775;SDS011;66965;43.328;6.668;2023-05-16T05:37:19;4.28;;;2.20;;
77775;SDS011;66965;43.328;6.668;2023-05-16T05:39:45;4.43;;;2.43;;
77775;SDS011;66965;43.328;6.668;2023-05-16T05:42:10;3.80;;;2.50;;
77775;SDS011;66965;43.328;6.668;2023-05-16T05:44:36;4.57;;;2.65;;
77775;SDS011;66965;43.328;6.668;2023-05-16T05:47:01;4.47;;;2.38;;
77775;SDS011;66965;43.328;6.668;2023-05-16T05:49:27;3.90;;;2.33;;
77775;SDS011;66965;43.328;6.668;2023-05-16T05:51:52;4.17;;;2.50;;
77775;SDS011;66965;43.328;6.668;2023-05-16T05:54:18;4.55;;;2.55;;
77775;SDS011;66965;43.328;6.668;2023-05-16T05:56:43;4.35;;;2.55;;
77775;SDS011;66965;43.328;6.668;2023-05-16T05:59:08;4.33;;;2.40;;
77775;SDS011;66965;43.328;6.668;2023-05-16T06:01:34;5.90;;;2.47;;
77775;SDS011;66965;43.328;6.668;2023-05-16T06:03:59;5.93;;;2.90;;
77775;SDS011;66965;43.328;6.668;2023-05-16T06:06:24;5.40;;;2.53;;
77775;SDS011;66965;43.328;6.668;2023-05-16T06:08:50;4.70;;;2.60;;
77775;SDS011;66965;43.328;6.668;2023-05-16T06:11:15;5.03;;;2.50;;
77775;SDS011;66965;43.328;6.668;2023-05-16T06:13:40;5.10;;;2.43;;
77775;SDS011;66965;43.328;6.668;2023-05-16T06:16:05;4.47;;;2.83;;
77775;SDS011;66965;43.328;6.668;2023-05-16T06:18:31;4.00;;;2.20;;
77775;SDS011;66965;43.328;6.668;2023-05-16T06:20:56;4.38;;;2.30;;
77775;SDS011;66965;43.328;6.668;2023-05-16T06:23:21;4.70;;;2.70;;
77775;SDS011;66965;43.328;6.668;2023-05-16T06:25:47;5.10;;;3.03;;
77775;SDS011;66965;43.328;6.668;2023-05-16T06:28:12;4.90;;;2.55;;
77775;SDS011;66965;43.328;6.668;2023-05-16T06:30:37;4.70;;;2.63;;
77775;SDS011;66965;43.328;6.668;2023-05-16T06:33:03;6.43;;;2.40;;
77775;SDS011;66965;43.328;6.668;2023-05-16T06:35:28;5.93;;;2.30;;
77775;SDS011;66965;43.328;6.668;2023-05-16T06:37:53;4.73;;;2.23;;
77775;SDS011;66965;43.328;6.668;2023-05-16T06:40:18;4.27;;;2.27;;
77775;SDS011;66965;43.328;6.668;2023-05-16T06:42:44;4.50;;;2.25;;
77775;SDS011;66965;43.328;6.668;2023-05-16T06:45:09;4.32;;;2.20;;
77775;SDS011;66965;43.328;6.668;2023-05-16T06:47:35;5.75;;;2.53;;
77775;SDS011;66965;43.328;6.668;2023-05-16T06:50:00;4.20;;;2.40;;
77775;SDS011;66965;43.328;6.668;2023-05-16T06:52:25;5.40;;;2.33;;
77775;SDS011;66965;43.328;6.668;2023-05-16T06:54:51;4.97;;;2.23;;
77775;SDS011;66965;43.328;6.668;2023-05-16T06:57:16;4.57;;;2.20;;
77775;SDS011;66965;43.328;6.668;2023-05-16T06:59:42;4.47;;;2.00;;
77775;SDS011;66965;43.328;6.668;2023-05-16T07:02:07;4.15;;;2.10;;
77775;SDS011;66965;43.328;6.668;2023-05-16T07:04:32;4.30;;;2.05;;
77775;SDS011;66965;43.328;6.668;2023-05-16T07:07:00;4.32;;;2.38;;
77775;SDS011;66965;43.328;6.668;2023-05-16T07:09:25;4.27;;;2.27;;
77775;SDS011;66965;43.328;6.668;2023-05-16T07:11:51;4.37;;;2.10;;
77775;SDS011;66965;43.328;6.668;2023-05-16T07:14:16;4.43;;;1.90;;
77775;SDS011;66965;43.328;6.668;2023-05-16T07:16:41;5.93;;;2.47;;
77775;SDS011;66965;43.328;6.668;2023-05-16T07:19:06;4.22;;;2.20;;
77775;SDS011;66965;43.328;6.668;2023-05-16T07:21:32;5.60;;;2.40;;
77775;SDS011;66965;43.328;6.668;2023-05-16T07:23:57;5.50;;;2.70;;
77775;SDS011;66965;43.328;6.668;2023-05-16T07:26:22;5.27;;;2.30;;
77775;SDS011;66965;43.328;6.668;2023-05-16T07:28:48;4.43;;;1.85;;
77775;SDS011;66965;43.328;6.668;2023-05-16T07:31:13;5.32;;;2.60;;
77775;SDS011;66965;43.328;6.668;2023-05-16T07:33:40;9.20;;;2.50;;
77775;SDS011;66965;43.328;6.668;2023-05-16T07:36:05;4.35;;;2.75;;
77775;SDS011;66965;43.328;6.668;2023-05-16T07:38:31;5.28;;;2.40;;
77775;SDS011;66965;43.328;6.668;2023-05-16T07:40:56;5.00;;;2.40;;
77775;SDS011;66965;43.328;6.668;2023-05-16T07:43:21;3.93;;;1.97;;
77775;SDS011;66965;43.328;6.668;2023-05-16T07:45:47;4.50;;;2.90;;
77775;SDS011;66965;43.328;6.668;2023-05-16T07:48:12;4.50;;;2.20;;
77775;SDS011;66965;43.328;6.668;2023-05-16T07:50:37;4.27;;;2.43;;
77775;SDS011;66965;43.328;6.668;2023-05-16T07:53:02;5.23;;;2.73;;
77775;SDS011;66965;43.328;6.668;2023-05-16T07:55:28;4.50;;;2.20;;
77775;SDS011;66965;43.328;6.668;2023-05-16T07:57:53;3.88;;;2.00;;
77775;SDS011;66965;43.328;6.668;2023-05-16T08:00:19;4.03;;;2.22;;
77775;SDS011;66965;43.328;6.668;2023-05-16T08:02:44;4.18;;;2.13;;
77775;SDS011;66965;43.328;6.668;2023-05-16T08:05:10;3.88;;;2.15;;
77775;SDS011;66965;43.328;6.668;2023-05-16T08:07:35;6.13;;;2.67;;
77775;SDS011;66965;43.328;6.668;2023-05-16T08:10:00;4.33;;;1.93;;
77775;SDS011;66965;43.328;6.668;2023-05-16T08:12:25;4.40;;;2.20;;
77775;SDS011;66965;43.328;6.668;2023-05-16T08:14:51;5.00;;;2.17;;
77775;SDS011;66965;43.328;6.668;2023-05-16T08:17:17;4.10;;;1.92;;
77775;SDS011;66965;43.328;6.668;2023-05-16T08:19:42;3.90;;;2.10;;
77775;SDS011;66965;43.328;6.668;2023-05-16T08:22:07;7.00;;;2.30;;
77775;SDS011;66965;43.328;6.668;2023-05-16T08:24:33;3.72;;;2.03;;
77775;SDS011;66965;43.328;6.668;2023-05-16T08:26:58;4.32;;;1.92;;
77775;SDS011;66965;43.328;6.668;2023-05-16T08:29:24;6.80;;;2.70;;
77775;SDS011;66965;43.328;6.668;2023-05-16T08:31:50;6.15;;;2.22;;
77775;SDS011;66965;43.328;6.668;2023-05-16T08:34:15;3.87;;;2.17;;
77775;SDS011;66965;43.328;6.668;2023-05-16T08:36:41;4.37;;;2.43;;
77775;SDS011;66965;43.328;6.668;2023-05-16T08:39:06;5.00;;;2.20;;
77775;SDS011;66965;43.328;6.668;2023-05-16T08:41:31;5.30;;;2.50;;
77775;SDS011;66965;43.328;6.668;2023-05-16T08:43:57;4.18;;;2.22;;
77775;SDS011;66965;43.328;6.668;2023-05-16T08:46:22;4.03;;;2.13;;
77775;SDS011;66965;43.328;6.668;2023-05-16T08:48:51;6.07;;;2.17;;
77775;SDS011;66965;43.328;6.668;2023-05-16T08:51:17;3.83;;;1.95;;
77775;SDS011;66965;43.328;6.668;2023-05-16T08:53:44;4.93;;;2.20;;
77775;SDS011;66965;43.328;6.668;2023-05-16T08:56:10;4.30;;;2.13;;
77775;SDS011;66965;43.328;6.668;2023-05-16T09:01:01;3.60;;;1.70;;
77775;SDS011;66965;43.328;6.668;2023-05-16T09:03:30;5.63;;;2.05;;
77775;SDS011;66965;43.328;6.668;2023-05-16T09:08:21;3.70;;;2.00;;
77775;SDS011;66965;43.328;6.668;2023-05-16T09:13:12;5.90;;;1.90;;
77775;SDS011;66965;43.328;6.668;2023-05-16T09:15:37;4.38;;;2.22;;
77775;SDS011;66965;43.328;6.668;2023-05-16T09:20:29;5.63;;;2.17;;
77775;SDS011;66965;43.328;6.668;2023-05-16T09:25:21;3.73;;;1.70;;
77775;SDS011;66965;43.328;6.668;2023-05-16T09:27:47;5.13;;;1.55;;
77775;SDS011;66965;43.328;6.668;2023-05-16T09:30:15;3.40;;;1.77;;
77775;SDS011;66965;43.328;6.668;2023-05-16T09:32:43;3.95;;;1.83;;
77775;SDS011;66965;43.328;6.668;2023-05-16T09:35:10;4.10;;;1.67;;
77775;SDS011;66965;43.328;6.668;2023-05-16T09:37:35;6.78;;;3.17;;
77775;SDS011;66965;43.328;6.668;2023-05-16T09:42:25;3.70;;;1.83;;
77775;SDS011;66965;43.328;6.668;2023-05-16T09:47:16;3.67;;;1.90;;
77775;SDS011;66965;43.328;6.668;2023-05-16T09:52:07;5.22;;;2.30;;
77775;SDS011;66965;43.328;6.668;2023-05-16T09:54:33;3.92;;;1.88;;
77775;SDS011;66965;43.328;6.668;2023-05-16T09:56:59;3.60;;;1.83;;
77775;SDS011;66965;43.328;6.668;2023-05-16T09:59:28;3.88;;;2.25;;
77775;SDS011;66965;43.328;6.668;2023-05-16T10:01:54;5.93;;;2.22;;
77775;SDS011;66965;43.328;6.668;2023-05-16T10:04:21;5.75;;;2.20;;
77775;SDS011;66965;43.328;6.668;2023-05-16T10:06:46;5.20;;;1.60;;
77775;SDS011;66965;43.328;6.668;2023-05-16T10:09:13;5.00;;;1.85;;
77775;SDS011;66965;43.328;6.668;2023-05-16T10:11:43;4.28;;;1.95;;
77775;SDS011;66965;43.328;6.668;2023-05-16T10:14:10;3.97;;;2.00;;
77775;SDS011;66965;43.328;6.668;2023-05-16T10:16:35;3.92;;;1.83;;
77775;SDS011;66965;43.328;6.668;2023-05-16T10:19:01;4.85;;;1.98;;
77775;SDS011;66965;43.328;6.668;2023-05-16T10:21:27;4.15;;;2.08;;
77775;SDS011;66965;43.328;6.668;2023-05-16T10:23:54;5.20;;;2.13;;
77775;SDS011;66965;43.328;6.668;2023-05-16T10:26:20;4.93;;;1.70;;
77775;SDS011;66965;43.328;6.668;2023-05-16T10:28:46;6.55;;;2.42;;
77775;SDS011;66965;43.328;6.668;2023-05-16T10:31:12;5.05;;;2.38;;
77775;SDS011;66965;43.328;6.668;2023-05-16T10:33:38;6.40;;;2.03;;
77775;SDS011;66965;43.328;6.668;2023-05-16T10:36:03;5.43;;;2.07;;
77775;SDS011;66965;43.328;6.668;2023-05-16T10:38:29;5.68;;;2.08;;
77775;SDS011;66965;43.328;6.668;2023-05-16T10:40:55;7.03;;;1.90;;
77775;SDS011;66965;43.328;6.668;2023-05-16T10:45:46;5.18;;;1.60;;
77775;SDS011;66965;43.328;6.668;2023-05-16T10:48:17;4.95;;;2.50;;
77775;SDS011;66965;43.328;6.668;2023-05-16T10:50:52;5.03;;;2.10;;
77775;SDS011;66965;43.328;6.668;2023-05-16T10:53:32;5.30;;;2.17;;
77775;SDS011;66965;43.328;6.668;2023-05-16T11:01:14;4.95;;;1.90;;
77775;SDS011;66965;43.328;6.668;2023-05-16T11:04:02;7.82;;;2.50;;
77775;SDS011;66965;43.328;6.668;2023-05-16T11:06:26;5.05;;;2.45;;
77775;SDS011;66965;43.328;6.668;2023-05-16T11:14:21;4.47;;;1.83;;
77775;SDS011;66965;43.328;6.668;2023-05-16T11:16:48;6.00;;;2.78;;
77775;SDS011;66965;43.328;6.668;2023-05-16T11:19:17;4.35;;;1.92;;
77775;SDS011;66965;43.328;6.668;2023-05-16T11:27:11;6.32;;;2.13;;
77775;SDS011;66965;43.328;6.668;2023-05-16T11:29:38;6.15;;;2.47;;
77775;SDS011;66965;43.328;6.668;2023-05-16T11:34:29;5.77;;;2.77;;
77775;SDS011;66965;43.328;6.668;2023-05-16T11:39:20;5.65;;;2.35;;
77775;SDS011;66965;43.328;6.668;2023-05-16T11:44:11;9.70;;;2.60;;
77775;SDS011;66965;43.328;6.668;2023-05-16T11:46:37;8.23;;;2.47;;
77775;SDS011;66965;43.328;6.668;2023-05-16T11:49:03;4.15;;;1.90;;
77775;SDS011;66965;43.328;6.668;2023-05-16T11:51:28;4.60;;;2.13;;
77775;SDS011;66965;43.328;6.668;2023-05-16T11:53:54;4.72;;;2.28;;
77775;SDS011;66965;43.328;6.668;2023-05-16T11:58:45;5.18;;;2.13;;
77775;SDS011;66965;43.328;6.668;2023-05-16T12:01:11;5.38;;;1.95;;
77775;SDS011;66965;43.328;6.668;2023-05-16T12:06:02;5.38;;;2.20;;
77775;SDS011;66965;43.328;6.668;2023-05-16T12:10:54;4.68;;;2.65;;
77775;SDS011;66965;43.328;6.668;2023-05-16T12:15:45;5.90;;;2.50;;
77775;SDS011;66965;43.328;6.668;2023-05-16T12:20:36;5.17;;;3.00;;
77775;SDS011;66965;43.328;6.668;2023-05-16T12:25:30;5.28;;;2.83;;
77775;SDS011;66965;43.328;6.668;2023-05-16T12:28:00;5.72;;;3.10;;
77775;SDS011;66965;43.328;6.668;2023-05-16T12:32:58;8.60;;;3.20;;
77775;SDS011;66965;43.328;6.668;2023-05-16T12:35:33;6.40;;;2.70;;
77775;SDS011;66965;43.328;6.668;2023-05-16T12:37:59;7.93;;;3.35;;
77775;SDS011;66965;43.328;6.668;2023-05-16T12:40:28;8.18;;;2.97;;
77775;SDS011;66965;43.328;6.668;2023-05-16T12:42:54;7.70;;;3.30;;
77775;SDS011;66965;43.328;6.668;2023-05-16T12:47:44;8.17;;;2.67;;
77775;SDS011;66965;43.328;6.668;2023-05-16T12:50:11;6.55;;;3.10;;
77775;SDS011;66965;43.328;6.668;2023-05-16T12:52:49;8.40;;;3.70;;
77775;SDS011;66965;43.328;6.668;2023-05-16T12:55:15;6.90;;;3.30;;
77775;SDS011;66965;43.328;6.668;2023-05-16T13:00:07;7.13;;;3.30;;
77775;SDS011;66965;43.328;6.668;2023-05-16T13:04:57;6.82;;;2.55;;
77775;SDS011;66965;43.328;6.668;2023-05-16T13:07:23;6.57;;;3.37;;
77775;SDS011;66965;43.328;6.668;2023-05-16T13:09:48;8.73;;;3.17;;
77775;SDS011;66965;43.328;6.668;2023-05-16T13:12:13;9.83;;;3.67;;
77775;SDS011;66965;43.328;6.668;2023-05-16T13:14:39;7.68;;;3.17;;
77775;SDS011;66965;43.328;6.668;2023-05-16T13:17:06;8.48;;;3.35;;
77775;SDS011;66965;43.328;6.668;2023-05-16T13:19:31;7.30;;;3.00;;
77775;SDS011;66965;43.328;6.668;2023-05-16T13:21:57;8.00;;;3.30;;
77775;SDS011;66965;43.328;6.668;2023-05-16T13:24:22;8.00;;;3.07;;
77775;SDS011;66965;43.328;6.668;2023-05-16T13:29:12;12.45;;;4.75;;
77775;SDS011;66965;43.328;6.668;2023-05-16T13:31:38;6.05;;;2.55;;
77775;SDS011;66965;43.328;6.668;2023-05-16T13:34:04;18.70;;;6.40;;
77775;SDS011;66965;43.328;6.668;2023-05-16T13:36:29;6.20;;;3.07;;
77775;SDS011;66965;43.328;6.668;2023-05-16T13:38:54;9.50;;;3.38;;
77775;SDS011;66965;43.328;6.668;2023-05-16T13:41:20;7.95;;;3.28;;
77775;SDS011;66965;43.328;6.668;2023-05-16T13:43:46;6.57;;;3.08;;
77775;SDS011;66965;43.328;6.668;2023-05-16T13:46:11;7.70;;;3.67;;
77775;SDS011;66965;43.328;6.668;2023-05-16T13:48:36;6.00;;;3.17;;
77775;SDS011;66965;43.328;6.668;2023-05-16T13:51:02;11.80;;;3.60;;
77775;SDS011;66965;43.328;6.668;2023-05-16T13:53:27;6.23;;;3.20;;
77775;SDS011;66965;43.328;6.668;2023-05-16T13:55:52;6.07;;;4.10;;
77775;SDS011;66965;43.328;6.668;2023-05-16T13:58:18;7.72;;;3.88;;
77775;SDS011;66965;43.328;6.668;2023-05-16T14:00:43;7.80;;;3.70;;
77775;SDS011;66965;43.328;6.668;2023-05-16T14:03:09;8.77;;;4.18;;
77775;SDS011;66965;43.328;6.668;2023-05-16T14:05:34;12.63;;;3.83;;
77775;SDS011;66965;43.328;6.668;2023-05-16T14:10:26;6.60;;;3.63;;
77775;SDS011;66965;43.328;6.668;2023-05-16T14:12:51;6.90;;;3.43;;
77775;SDS011;66965;43.328;6.668;2023-05-16T14:15:17;7.47;;;3.30;;
77775;SDS011;66965;43.328;6.668;2023-05-16T14:17:42;5.90;;;3.37;;
77775;SDS011;66965;43.328;6.668;2023-05-16T14:20:07;5.77;;;3.50;;
77775;SDS011;66965;43.328;6.668;2023-05-16T14:22:36;7.15;;;3.20;;
77775;SDS011;66965;43.328;6.668;2023-05-16T14:25:01;8.63;;;3.53;;
77775;SDS011;66965;43.328;6.668;2023-05-16T14:27:26;7.40;;;3.43;;
77775;SDS011;66965;43.328;6.668;2023-05-16T14:29:51;7.00;;;3.17;;
77775;SDS011;66965;43.328;6.668;2023-05-16T14:32:17;8.97;;;3.70;;
77775;SDS011;66965;43.328;6.668;2023-05-16T14:34:42;6.63;;;3.03;;
77775;SDS011;66965;43.328;6.668;2023-05-16T14:37:07;5.93;;;2.70;;
77775;SDS011;66965;43.328;6.668;2023-05-16T14:39:34;6.88;;;2.72;;
77775;SDS011;66965;43.328;6.668;2023-05-16T14:44:24;6.60;;;3.03;;
77775;SDS011;66965;43.328;6.668;2023-05-16T14:49:15;8.23;;;3.22;;
77775;SDS011;66965;43.328;6.668;2023-05-16T14:54:08;6.35;;;2.83;;
77775;SDS011;66965;43.328;6.668;2023-05-16T14:59:00;8.18;;;3.35;;
77775;SDS011;66965;43.328;6.668;2023-05-16T15:01:25;7.93;;;3.38;;
77775;SDS011;66965;43.328;6.668;2023-05-16T15:03:51;8.55;;;3.63;;
77775;SDS011;66965;43.328;6.668;2023-05-16T15:06:16;8.10;;;4.35;;
77775;SDS011;66965;43.328;6.668;2023-05-16T15:08:41;6.87;;;3.47;;
77775;SDS011;66965;43.328;6.668;2023-05-16T15:11:07;9.10;;;4.38;;
77775;SDS011;66965;43.328;6.668;2023-05-16T15:13:33;11.55;;;4.38;;
77775;SDS011;66965;43.328;6.668;2023-05-16T15:15:58;11.60;;;4.13;;
77775;SDS011;66965;43.328;6.668;2023-05-16T15:18:24;12.02;;;4.78;;
77775;SDS011;66965;43.328;6.668;2023-05-16T15:20:49;14.93;;;4.63;;
77775;SDS011;66965;43.328;6.668;2023-05-16T15:23:16;8.70;;;3.95;;
77775;SDS011;66965;43.328;6.668;2023-05-16T15:25:41;12.55;;;4.53;;
77775;SDS011;66965;43.328;6.668;2023-05-16T15:28:06;12.30;;;4.63;;
77775;SDS011;66965;43.328;6.668;2023-05-16T15:30:32;9.23;;;4.10;;
77775;SDS011;66965;43.328;6.668;2023-05-16T15:32:57;12.13;;;4.70;;
77775;SDS011;66965;43.328;6.668;2023-05-16T15:35:22;14.60;;;4.70;;
77775;SDS011;66965;43.328;6.668;2023-05-16T15:37:47;8.43;;;4.67;;
77775;SDS011;66965;43.328;6.668;2023-05-16T15:40:13;11.47;;;5.27;;
77775;SDS011;66965;43.328;6.668;2023-05-16T15:42:38;9.20;;;4.50;;
77775;SDS011;66965;43.328;6.668;2023-05-16T15:45:06;12.35;;;5.03;;
77775;SDS011;66965;43.328;6.668;2023-05-16T15:47:31;11.25;;;4.13;;
77775;SDS011;66965;43.328;6.668;2023-05-16T15:49:57;8.18;;;3.95;;
77775;SDS011;66965;43.328;6.668;2023-05-16T15:52:22;7.43;;;4.00;;
77775;SDS011;66965;43.328;6.668;2023-05-16T15:54:47;14.87;;;4.93;;
77775;SDS011;66965;43.328;6.668;2023-05-16T15:57:12;14.57;;;4.60;;
77775;SDS011;66965;43.328;6.668;2023-05-16T15:59:38;10.93;;;4.30;;
77775;SDS011;66965;43.328;6.668;2023-05-16T16:02:03;9.07;;;4.50;;
77775;SDS011;66965;43.328;6.668;2023-05-16T16:04:29;14.60;;;4.05;;
77775;SDS011;66965;43.328;6.668;2023-05-16T16:06:55;8.68;;;3.88;;
77775;SDS011;66965;43.328;6.668;2023-05-16T16:09:20;12.47;;;4.27;;
77775;SDS011;66965;43.328;6.668;2023-05-16T16:11:45;17.67;;;4.03;;
77775;SDS011;66965;43.328;6.668;2023-05-16T16:14:10;8.77;;;3.73;;